Flight Track Log - Related Links

Times and Time Zones

All times are in EDT time to prevent confusion due to time zone crossing. See the CTL18 flight status page for this flight to view local times or setup timezone preferences in your user account.

Time Position Orientation Groundspeed Altitude Reporting Facility
EDT Latitude Longitude Course Direction KTS MPH feet Rate Location/Type
Mon 09:06:15 PM 42.2150 -83.5692 238° Southwest 112 129 1,600  Level Cleveland Center
Mon 09:07:16 PM 42.1914 -83.5989 223° Southwest 109 125 2,500 639 Climbing Cleveland Center
Mon 09:08:17 PM 42.1578 -83.6056 188° South 135 155 2,900 198 Climbing Cleveland Center
Mon 09:09:17 PM 42.1139 -83.6147 189° South 165 190 2,900  Level Cleveland Center
Mon 09:10:18 PM 42.0764 -83.6075 172° South 157 181 2,900 49 Level Cleveland Center
Mon 09:11:19 PM 42.0592 -83.5478 111° Southeast 163 188 3,000 47 Climbing Cleveland Center
Mon 09:12:25 PM 42.0442 -83.4828 107° East 163 188 3,000  Level Cleveland Center
Mon 09:13:32 PM 42.0269 -83.4178 110° East 165 190 3,000  Level Cleveland Center
Mon 09:14:33 PM 42.0097 -83.3639 113° Southeast 167 192 3,000  Level Cleveland Center
Mon 09:15:27 PM 41.9964 -83.3072 108° East 168 193 3,000  Level Cleveland Center
Mon 09:16:28 PM 41.9769 -83.2478 114° Southeast 170 196 3,000  Level Cleveland Center
Mon 09:17:41 PM 41.9536 -83.1797 115° Southeast 167 192 3,000 271 Level Cleveland Center
Mon 09:18:41 PM 41.9403 -83.1233 108° East 153 176 3,600 574 Climbing Cleveland Center
Mon 09:19:36 PM 41.9267 -83.0756 111° Southeast 149 171 4,100 517 Climbing Cleveland Center
Mon 09:20:37 PM 41.9108 -83.0275 114° Southeast 146 168 4,600 446 Climbing Cleveland Center
Mon 09:21:37 PM 41.8994 -82.9767 107° East 144 166 5,000 198 Climbing Cleveland Center
Mon 09:22:38 PM 41.8839 -82.9233 111° Southeast 162 186 5,000 53 Level Cleveland Center
Mon 09:23:30 PM 41.8683 -82.8753 113° Southeast 168 193 5,100 54 Climbing Cleveland Center
Mon 09:24:30 PM 41.8528 -82.8161 109° East 171 197 5,100 55 Level Cleveland Center
Mon 09:25:19 PM 41.8372 -82.7625 111° Southeast 172 198 5,200  Climbing Cleveland Center
Mon 09:26:19 PM 41.8256 -82.7036 105° East 168 193 5,100 -47 Descending Cleveland Center
Mon 09:27:26 PM 41.8103 -82.6336 106° East 174 200 5,100 -47 Level Cleveland Center
Mon 09:28:27 PM 41.7967 -82.5717 106° East 171 197 5,000 -248 Descending Cleveland Center
Mon 09:29:27 PM 41.7811 -82.5072 108° East 185 213 4,600 -298 Descending Cleveland Center
Mon 09:30:28 PM 41.7697 -82.4400 103° East 183 211 4,400 -246 Descending Cleveland Center
Mon 09:31:29 PM 41.7583 -82.3758 103° East 181 208 4,100 -261 Descending Cleveland Center
Mon 09:32:23 PM 41.7467 -82.3142 104° East 180 207 3,900 -261 Descending Cleveland Center
Mon 09:33:24 PM 41.7311 -82.2525 109° East 178 205 3,600 -378 Descending Cleveland Center
Mon 09:34:30 PM 41.7153 -82.1853 107° East 172 198 3,100 -283 Descending Cleveland Center
Mon 09:35:31 PM 41.7036 -82.1239 104° East 171 197 3,000  Descending Cleveland Center
Mon 09:36:32 PM 41.6856 -82.0678 113° Southeast 158 182 3,100 -52 Climbing Cleveland Center
Mon 09:37:26 PM 41.6694 -82.0203 114° Southeast 158 182 2,900 -397 Descending Cleveland Center
Mon 09:38:33 PM 41.6431 -81.9586 120° Southeast 172 198 2,300 -422 Descending Cleveland Center
Mon 09:39:34 PM 41.6189 -81.9053 121° Southeast 164 189 2,000 -248 Descending Cleveland Center
Mon 09:40:34 PM 41.5922 -81.8603 128° Southeast 155 178 1,800 -149 Descending Cleveland Center
Mon 09:41:35 PM 41.5636 -81.8153 130° Southeast 151 174 1,700 -99 Descending Cleveland Center
Mon 09:42:35 PM 41.5411 -81.7733 126° Southeast 146 168 1,600 -298 Descending Cleveland Center
Mon 09:43:36 PM 41.5144 -81.7311 130° Southeast 144 166 1,100 -492 Descending Cleveland Center

Login

Don't have an account? Register now (free) for customized features, flight alerts, and more!